Neptune Ace — C6YU3 — position and weather

sailwx.info

Track history (hours):
 
Tides and Currents Weather Stations Pressure Air Temp Water Temp Dewpoint Dewpoint Depression Visibility Wind Speed Wind Dir Waves Ship Positions

Neptune Ace

Last reported at 2018-Aug-07 07:44 UTC. Time now 2018-Aug-14 15:18 UTC.
Position N 01°32' E 104°35'.

Length 200 m; draft 7.8 m.

Type: Cargo ship. MMSI: 311045300.

Date/timePositionNaut miles runAvg speedWind from/ knotsBaromVisibWave heightAir tempDewpointWater temp
2018-Aug-07 07:44N 01°32' E 104°35'413.6
2018-Aug-07 07:27N 01°29' E 104°32'611.0
2018-Aug-07 06:55N 01°25' E 104°28'510.2
2018-Aug-07 06:27N 01°21' E 104°25'510.4
2018-Aug-07 05:59N 01°18' E 104°21'510.2
2018-Aug-07 05:29N 01°16' E 104°17'610.9
2018-Aug-07 04:58N 01°15' E 104°11'510.2
2018-Aug-07 04:30N 01°15' E 104°06'610.6
2018-Aug-07 03:57N 01°15' E 104°00'511.3
2018-Aug-07 03:30N 01°13' E 103°55'3 5.4
2018-Aug-07 02:59N 01°15' E 103°53'0 0.2
2018-Aug-07 02:29N 01°15' E 103°53'0 0.0
2018-Aug-07 01:59N 01°15' E 103°53'0 0.1
2018-Aug-07 01:30N 01°15' E 103°53'0 0.0
2018-Aug-07 00:59N 01°15' E 103°53'0 0.0
2018-Aug-07 00:25N 01°15' E 103°53'0 0.1
2018-Aug-06 23:51N 01°15' E 103°53'0 0.0
2018-Aug-06 23:26N 01°15' E 103°53'0 0.0
2018-Aug-06 22:59N 01°15' E 103°53'0 0.0
2018-Aug-06 22:27N 01°15' E 103°53'0 0.0
2018-Aug-06 21:56N 01°15' E 103°53'0 0.1
2018-Aug-06 21:28N 01°15' E 103°53'0 0.0
2018-Aug-06 20:59N 01°15' E 103°53'0 0.0
2018-Aug-06 20:29N 01°15' E 103°53'0 0.0
2018-Aug-06 19:56N 01°15' E 103°53'0 0.0
2018-Aug-06 19:29N 01°15' E 103°53'0 0.0
2018-Aug-06 18:50N 01°15' E 103°53'0 0.0
2018-Aug-06 18:30N 01°15' E 103°53'0 0.0
2018-Aug-06 17:56N 01°15' E 103°53'0 0.0
2018-Aug-06 17:31N 01°15' E 103°53'0 0.0
2018-Aug-06 16:59N 01°15' E 103°53'0 0.0
2018-Aug-06 16:27N 01°15' E 103°53'0 0.0
2018-Aug-06 15:53N 01°15' E 103°53'0 0.0
2018-Aug-06 15:27N 01°15' E 103°53'0 0.6
2018-Aug-06 15:00N 01°15' E 103°53'4 7.8
2018-Aug-06 14:30N 01°12' E 103°51'510.0
2018-Aug-06 14:00N 01°15' E 103°46'3 4.7
2018-Aug-06 13:27N 01°17' E 103°45'0 0.0
2018-Aug-06 12:58N 01°17' E 103°45'0 0.0
2018-Aug-06 12:30N 01°17' E 103°45'0 0.0
2018-Aug-06 11:58N 01°17' E 103°45'0 0.0
2018-Aug-06 11:29N 01°17' E 103°45'0 0.0
2018-Aug-06 10:57N 01°17' E 103°45'0 0.0
2018-Aug-06 10:29N 01°17' E 103°45'0 0.0
2018-Aug-06 09:58N 01°17' E 103°45'0 0.0
2018-Aug-06 09:30N 01°17' E 103°45'0 0.0
2018-Aug-06 09:00N 01°17' E 103°45'0 0.0
2018-Aug-06 08:28N 01°17' E 103°45'0 0.0
2018-Aug-06 07:58N 01°17' E 103°45'0 0.0
2018-Aug-06 07:30N 01°17' E 103°45'0 0.0
2018-Aug-06 06:58N 01°17' E 103°45'0 0.0
2018-Aug-06 06:28N 01°17' E 103°45'0 0.0
2018-Aug-06 05:59N 01°17' E 103°45'0 0.0
2018-Aug-06 05:28N 01°17' E 103°45'0 0.0
2018-Aug-06 04:58N 01°17' E 103°45'0 0.0
2018-Aug-06 04:30N 01°17' E 103°45'0 0.0
2018-Aug-06 03:59N 01°17' E 103°45'0 0.0
2018-Aug-06 03:30N 01°17' E 103°45'0 0.0
2018-Aug-06 02:58N 01°17' E 103°45'0 0.0
2018-Aug-06 02:28N 01°17' E 103°45'0 0.0
2018-Aug-06 01:58N 01°17' E 103°45'1 1.5
2018-Aug-06 01:31N 01°17' E 103°45'2 4.1
2018-Aug-06 01:00N 01°15' E 103°45'4 7.1
2018-Aug-06 00:30N 01°13' E 103°42'5 9.8
2018-Aug-06 00:00N 01°13' E 103°37'4 7.4
2018-Aug-05 23:30N 01°12' E 103°33'4 8.0
2018-Aug-05 22:59N 01°10' E 103°29'3 7.2
2018-Aug-05 22:30N 01°10' E 103°26'611.4
2018-Aug-05 21:59N 01°14' E 103°21'511.0
2018-Aug-05 21:30N 01°17' E 103°17'  
Track history (hours):
 
Tides and Currents Weather Stations Pressure Air Temp Water Temp Dewpoint Dewpoint Depression Visibility Wind Speed Wind Dir Waves Ship Positions

Neptune Ace

Last reported at 2018-Aug-07 07:44 UTC. Time now 2018-Aug-14 15:18 UTC.
Position N 01°32' E 104°35'.

Length 200 m; draft 7.8 m.

Type: Cargo ship. MMSI: 311045300.

Date/timePositionNaut miles runAvg speedWind from/ knotsBaromVisibWave heightAir tempDewpointWater temp
2018-Aug-07 07:44N 01°32' E 104°35'413.6
2018-Aug-07 07:27N 01°29' E 104°32'611.0
2018-Aug-07 06:55N 01°25' E 104°28'510.2
2018-Aug-07 06:27N 01°21' E 104°25'510.4
2018-Aug-07 05:59N 01°18' E 104°21'510.2
2018-Aug-07 05:29N 01°16' E 104°17'610.9
2018-Aug-07 04:58N 01°15' E 104°11'510.2
2018-Aug-07 04:30N 01°15' E 104°06'610.6
2018-Aug-07 03:57N 01°15' E 104°00'511.3
2018-Aug-07 03:30N 01°13' E 103°55'3 5.4
2018-Aug-07 02:59N 01°15' E 103°53'0 0.2
2018-Aug-07 02:29N 01°15' E 103°53'0 0.0
2018-Aug-07 01:59N 01°15' E 103°53'0 0.1
2018-Aug-07 01:30N 01°15' E 103°53'0 0.0
2018-Aug-07 00:59N 01°15' E 103°53'0 0.0
2018-Aug-07 00:25N 01°15' E 103°53'0 0.1
2018-Aug-06 23:51N 01°15' E 103°53'0 0.0
2018-Aug-06 23:26N 01°15' E 103°53'0 0.0
2018-Aug-06 22:59N 01°15' E 103°53'0 0.0
2018-Aug-06 22:27N 01°15' E 103°53'0 0.0
2018-Aug-06 21:56N 01°15' E 103°53'0 0.1
2018-Aug-06 21:28N 01°15' E 103°53'0 0.0
2018-Aug-06 20:59N 01°15' E 103°53'0 0.0
2018-Aug-06 20:29N 01°15' E 103°53'0 0.0
2018-Aug-06 19:56N 01°15' E 103°53'0 0.0
2018-Aug-06 19:29N 01°15' E 103°53'0 0.0
2018-Aug-06 18:50N 01°15' E 103°53'0 0.0
2018-Aug-06 18:30N 01°15' E 103°53'0 0.0
2018-Aug-06 17:56N 01°15' E 103°53'0 0.0
2018-Aug-06 17:31N 01°15' E 103°53'0 0.0
2018-Aug-06 16:59N 01°15' E 103°53'0 0.0
2018-Aug-06 16:27N 01°15' E 103°53'0 0.0
2018-Aug-06 15:53N 01°15' E 103°53'0 0.0
2018-Aug-06 15:27N 01°15' E 103°53'0 0.6
2018-Aug-06 15:00N 01°15' E 103°53'4 7.8
2018-Aug-06 14:30N 01°12' E 103°51'510.0
2018-Aug-06 14:00N 01°15' E 103°46'3 4.7
2018-Aug-06 13:27N 01°17' E 103°45'0 0.0
2018-Aug-06 12:58N 01°17' E 103°45'0 0.0
2018-Aug-06 12:30N 01°17' E 103°45'0 0.0
2018-Aug-06 11:58N 01°17' E 103°45'0 0.0
2018-Aug-06 11:29N 01°17' E 103°45'0 0.0
2018-Aug-06 10:57N 01°17' E 103°45'0 0.0
2018-Aug-06 10:29N 01°17' E 103°45'0 0.0
2018-Aug-06 09:58N 01°17' E 103°45'0 0.0
2018-Aug-06 09:30N 01°17' E 103°45'0 0.0
2018-Aug-06 09:00N 01°17' E 103°45'0 0.0
2018-Aug-06 08:28N 01°17' E 103°45'0 0.0
2018-Aug-06 07:58N 01°17' E 103°45'0 0.0
2018-Aug-06 07:30N 01°17' E 103°45'0 0.0
2018-Aug-06 06:58N 01°17' E 103°45'0 0.0
2018-Aug-06 06:28N 01°17' E 103°45'0 0.0
2018-Aug-06 05:59N 01°17' E 103°45'0 0.0
2018-Aug-06 05:28N 01°17' E 103°45'0 0.0
2018-Aug-06 04:58N 01°17' E 103°45'0 0.0
2018-Aug-06 04:30N 01°17' E 103°45'0 0.0
2018-Aug-06 03:59N 01°17' E 103°45'0 0.0
2018-Aug-06 03:30N 01°17' E 103°45'0 0.0
2018-Aug-06 02:58N 01°17' E 103°45'0 0.0
2018-Aug-06 02:28N 01°17' E 103°45'0 0.0
2018-Aug-06 01:58N 01°17' E 103°45'1 1.5
2018-Aug-06 01:31N 01°17' E 103°45'2 4.1
2018-Aug-06 01:00N 01°15' E 103°45'4 7.1
2018-Aug-06 00:30N 01°13' E 103°42'5 9.8
2018-Aug-06 00:00N 01°13' E 103°37'4 7.4
2018-Aug-05 23:30N 01°12' E 103°33'4 8.0
2018-Aug-05 22:59N 01°10' E 103°29'3 7.2
2018-Aug-05 22:30N 01°10' E 103°26'611.4
2018-Aug-05 21:59N 01°14' E 103°21'511.0
2018-Aug-05 21:30N 01°17' E 103°17'  

Dump ship's entire track history